createdAt,value
2022-10-17T00:00:37.151Z,9.95
2022-10-17T00:03:05.708Z,10.95
2022-10-17T00:05:34.113Z,14.77
2022-10-17T00:08:02.527Z,8.55
2022-10-17T00:10:30.888Z,13.55
2022-10-17T00:13:00.579Z,11.73
2022-10-17T00:15:29.078Z,9.30
2022-10-17T00:17:58.125Z,9.02
2022-10-17T00:20:26.812Z,8.65
2022-10-17T00:22:55.289Z,9.13
2022-10-17T00:25:23.782Z,12.40
2022-10-17T00:27:52.098Z,8.75
2022-10-17T00:30:21.924Z,8.65
2022-10-17T00:32:50.241Z,9.93
2022-10-17T00:35:19.140Z,10.25
2022-10-17T00:37:47.437Z,11.65
2022-10-17T00:40:15.906Z,10.27
2022-10-17T00:42:44.140Z,11.82
2022-10-17T00:45:22.851Z,13.23
2022-10-17T00:47:57.395Z,10.18
2022-10-17T00:50:26.492Z,12.73
2022-10-17T00:52:56.555Z,11.55
2022-10-17T00:55:29.986Z,12.18
2022-10-17T00:57:59.312Z,13.88
2022-10-17T01:00:29.151Z,12.45
2022-10-17T01:02:59.560Z,11.57
2022-10-17T01:05:28.172Z,14.82
2022-10-17T01:07:57.378Z,13.90
2022-10-17T01:10:32.075Z,13.18
2022-10-17T01:13:13.539Z,17.10
2022-10-17T01:15:58.315Z,13.50
2022-10-17T01:18:42.250Z,13.52
2022-10-17T01:21:47.793Z,12.75
2022-10-17T01:24:48.823Z,11.20
2022-10-17T01:27:48.756Z,15.43
2022-10-17T01:33:23.544Z,14.40
2022-10-17T01:36:01.831Z,14.35
2022-10-17T01:38:39.135Z,16.98
2022-10-17T01:41:18.101Z,14.82
2022-10-17T01:43:54.175Z,14.40
2022-10-17T01:46:28.647Z,15.95
2022-10-17T01:49:02.090Z,13.93
2022-10-17T01:51:35.760Z,13.90
2022-10-17T01:54:08.472Z,14.50
2022-10-17T01:56:39.401Z,15.02
2022-10-17T01:59:20.671Z,14.13
2022-10-17T02:01:52.932Z,18.25
2022-10-17T02:04:23.399Z,15.48
2022-10-17T02:06:51.676Z,18.52
2022-10-17T02:09:23.713Z,15.18
2022-10-17T02:12:17.286Z,14.38
2022-10-17T02:15:06.297Z,17.52
2022-10-17T02:17:46.604Z,15.13
2022-10-17T02:20:25.369Z,16.00
2022-10-17T02:22:59.947Z,14.25
2022-10-17T02:25:38.237Z,15.48
2022-10-17T02:28:20.617Z,14.52
2022-10-17T02:30:57.259Z,13.55
2022-10-17T02:33:31.622Z,15.82
2022-10-17T02:36:07.461Z,16.83
2022-10-17T02:38:36.805Z,14.13
2022-10-17T02:41:07.617Z,15.93
2022-10-17T02:43:37.691Z,13.45
2022-10-17T02:46:07.935Z,16.77
2022-10-17T02:48:40.106Z,14.50
2022-10-17T02:51:20.238Z,14.60
2022-10-17T02:53:57.295Z,15.23
2022-10-17T02:56:28.547Z,15.38
2022-10-17T02:58:59.997Z,15.15
2022-10-17T03:01:28.735Z,14.88
2022-10-17T03:04:07.810Z,14.55
2022-10-17T03:06:37.719Z,16.42
2022-10-17T03:09:06.392Z,16.48
2022-10-17T03:11:35.181Z,21.05
2022-10-17T03:14:03.613Z,14.45
2022-10-17T03:16:31.931Z,14.20
2022-10-17T03:19:00.330Z,17.05
2022-10-17T03:21:28.948Z,16.67
2022-10-17T03:23:59.076Z,15.38
2022-10-17T03:26:27.554Z,15.60
2022-10-17T03:28:55.990Z,15.23
2022-10-17T03:31:25.079Z,21.02
2022-10-17T03:33:54.201Z,16.88
2022-10-17T03:36:22.759Z,19.05
2022-10-17T03:38:55.564Z,18.60
2022-10-17T03:41:26.067Z,15.43
2022-10-17T03:43:55.593Z,15.30
2022-10-17T03:46:25.389Z,18.77
2022-10-17T03:48:55.282Z,16.42
2022-10-17T03:51:23.903Z,14.70
2022-10-17T03:53:56.967Z,21.20
2022-10-17T03:56:27.758Z,18.98
2022-10-17T03:59:03.610Z,14.95
2022-10-17T04:01:35.091Z,16.92
2022-10-17T04:04:03.634Z,20.95
2022-10-17T04:06:35.485Z,19.05
2022-10-17T04:09:04.986Z,14.13
2022-10-17T04:11:42.032Z,14.05
2022-10-17T04:14:11.975Z,14.95
2022-10-17T04:19:17.354Z,16.08
2022-10-17T04:21:48.208Z,13.75
2022-10-17T04:24:17.221Z,13.68
2022-10-17T04:27:09.779Z,11.77
2022-10-17T04:29:42.038Z,13.93
2022-10-17T04:32:18.346Z,14.55
2022-10-17T04:34:51.118Z,16.42
2022-10-17T04:37:21.430Z,15.60
2022-10-17T04:39:51.828Z,12.35
2022-10-17T04:42:21.822Z,14.10
2022-10-17T04:44:52.719Z,15.25
2022-10-17T04:47:21.016Z,10.32
2022-10-17T04:49:49.388Z,13.95
2022-10-17T04:52:18.272Z,13.90
2022-10-17T04:54:50.076Z,13.23
2022-10-17T04:57:21.119Z,15.68
2022-10-17T04:59:57.945Z,14.77
2022-10-17T05:02:51.671Z,15.63
2022-10-17T05:05:21.501Z,14.63
2022-10-17T05:07:53.713Z,15.27
2022-10-17T05:10:26.011Z,15.20
2022-10-17T05:12:57.931Z,17.27
2022-10-17T05:15:30.641Z,17.55
2022-10-17T05:17:59.571Z,13.10
2022-10-17T05:20:30.432Z,14.27
2022-10-17T05:23:00.612Z,11.90
2022-10-17T05:25:33.602Z,15.57
2022-10-17T05:28:03.410Z,14.90
2022-10-17T05:30:35.271Z,18.45
2022-10-17T05:33:07.721Z,11.40
2022-10-17T05:35:36.519Z,15.95
2022-10-17T05:38:04.920Z,16.80
2022-10-17T05:43:05.775Z,13.40
2022-10-17T05:45:34.324Z,13.52
2022-10-17T05:48:03.398Z,16.17
2022-10-17T05:50:32.023Z,11.95
2022-10-17T05:53:08.348Z,13.80
2022-10-17T05:55:41.456Z,12.60
2022-10-17T05:58:17.724Z,12.30
2022-10-17T06:00:59.026Z,15.23
2022-10-17T06:03:28.548Z,13.85
2022-10-17T06:05:56.965Z,10.50
2022-10-17T06:08:25.390Z,9.77
2022-10-17T06:10:53.750Z,18.35
2022-10-17T06:13:23.482Z,9.68
2022-10-17T06:15:53.500Z,12.13
2022-10-17T06:18:21.918Z,11.50
2022-10-17T06:20:50.265Z,10.30
2022-10-17T06:23:20.317Z,10.18
2022-10-17T06:26:01.624Z,12.35
2022-10-17T06:28:34.040Z,12.55
2022-10-17T06:31:07.065Z,11.60
2022-10-17T06:33:35.704Z,10.98
2022-10-17T06:36:07.015Z,12.65
2022-10-17T06:38:36.717Z,10.93
2022-10-17T06:41:13.713Z,14.13
2022-10-17T06:43:46.452Z,13.45
2022-10-17T06:46:33.303Z,12.73
2022-10-17T06:49:05.468Z,13.43
2022-10-17T06:52:12.368Z,10.93
2022-10-17T06:54:49.032Z,12.88
2022-10-17T06:57:35.929Z,14.07
2022-10-17T07:00:26.706Z,11.68
2022-10-17T07:02:57.712Z,14.93
2022-10-17T07:05:26.200Z,20.42
2022-10-17T07:07:54.489Z,12.70
2022-10-17T07:10:22.919Z,14.65
2022-10-17T07:12:51.283Z,13.75
2022-10-17T07:15:19.764Z,16.52
2022-10-17T07:17:51.555Z,11.65
2022-10-17T07:20:20.898Z,10.90
2022-10-17T07:22:49.155Z,16.73
2022-10-17T07:25:17.767Z,14.30
2022-10-17T07:27:51.723Z,14.10
2022-10-17T07:30:20.792Z,11.13
2022-10-17T07:33:02.541Z,13.50
2022-10-17T07:35:32.345Z,16.10
2022-10-17T07:38:00.762Z,18.92
2022-10-17T07:40:29.162Z,16.05
2022-10-17T07:42:58.460Z,14.95
2022-10-17T07:45:28.005Z,16.92
2022-10-17T07:47:58.344Z,16.10
2022-10-17T07:50:29.166Z,19.17
2022-10-17T07:52:57.471Z,16.02
2022-10-17T07:55:25.728Z,13.32
2022-10-17T07:57:55.652Z,19.42
2022-10-17T08:00:23.967Z,40.63
2022-10-17T08:02:52.277Z,15.95
2022-10-17T08:05:20.714Z,15.27
2022-10-17T08:07:50.343Z,14.80
2022-10-17T08:10:18.803Z,17.90
2022-10-17T08:12:47.116Z,17.08
2022-10-17T08:15:15.463Z,17.45
2022-10-17T08:17:43.776Z,13.57
2022-10-17T08:20:13.034Z,13.43
2022-10-17T08:22:41.340Z,16.13
2022-10-17T08:25:11.651Z,13.27
2022-10-17T08:27:39.975Z,18.52
2022-10-17T08:30:10.139Z,15.40
2022-10-17T08:32:38.456Z,17.98
2022-10-17T08:35:07.799Z,14.40
2022-10-17T08:37:36.733Z,14.38
2022-10-17T08:40:06.244Z,17.70
2022-10-17T08:43:25.603Z,16.35
2022-10-17T08:46:00.396Z,15.52
2022-10-17T08:48:33.017Z,16.35
2022-10-17T08:51:07.442Z,16.17
2022-10-17T08:53:40.927Z,13.43
2022-10-17T08:56:24.925Z,11.35
2022-10-17T08:59:14.403Z,14.18
2022-10-17T09:01:52.391Z,15.20
2022-10-17T09:04:49.539Z,16.27
2022-10-17T09:07:23.836Z,12.20
2022-10-17T09:10:03.941Z,14.95
2022-10-17T09:12:41.810Z,19.48
2022-10-17T09:15:39.555Z,14.30
2022-10-17T09:18:16.665Z,18.02
2022-10-17T09:20:53.632Z,15.52
2022-10-17T09:23:25.888Z,17.40
2022-10-17T09:25:56.441Z,11.75
2022-10-17T09:28:30.589Z,13.75
2022-10-17T09:31:04.638Z,13.68
2022-10-17T09:33:56.631Z,14.57
2022-10-17T09:36:29.503Z,13.35
2022-10-17T09:39:01.754Z,14.43
2022-10-17T09:44:31.876Z,16.90
2022-10-17T09:47:29.938Z,12.45
2022-10-17T09:49:58.637Z,13.45
2022-10-17T09:52:32.585Z,16.00
2022-10-17T09:55:06.364Z,15.45
2022-10-17T09:57:56.429Z,13.77
2022-10-17T10:00:27.869Z,13.68
2022-10-17T10:03:15.883Z,11.38
2022-10-17T10:06:00.347Z,13.63
2022-10-17T10:08:32.629Z,10.18
2022-10-17T10:11:04.675Z,11.57
2022-10-17T10:13:35.366Z,11.95
2022-10-17T10:18:50.979Z,12.77
2022-10-17T10:21:21.819Z,12.88
2022-10-17T10:24:14.121Z,8.32
2022-10-17T10:26:45.729Z,9.32
2022-10-17T10:29:26.673Z,7.63
2022-10-17T10:31:55.324Z,7.80
2022-10-17T10:34:29.872Z,5.93
2022-10-17T10:37:03.496Z,6.13
2022-10-17T10:39:51.064Z,5.70
2022-10-17T10:42:24.846Z,6.45
2022-10-17T10:44:53.933Z,6.60
2022-10-17T10:47:26.261Z,7.03
2022-10-17T10:50:25.466Z,8.02
2022-10-17T10:53:15.799Z,6.78
2022-10-17T10:55:49.229Z,5.53
2022-10-17T10:58:29.330Z,8.43
2022-10-17T11:01:03.755Z,5.85
2022-10-17T11:03:38.723Z,7.80
2022-10-17T11:06:26.380Z,5.70
2022-10-17T11:09:33.938Z,7.30
2022-10-17T11:12:08.252Z,6.95
2022-10-17T11:14:44.500Z,5.47
2022-10-17T11:17:24.630Z,4.97
2022-10-17T11:20:05.316Z,6.90
2022-10-17T11:22:40.076Z,5.38
2022-10-17T11:25:34.764Z,5.45
2022-10-17T11:28:05.276Z,6.15
2022-10-17T11:30:50.004Z,8.65
2022-10-17T11:33:28.158Z,7.10
2022-10-17T11:36:04.617Z,9.15
2022-10-17T11:38:47.345Z,9.48
2022-10-17T11:41:22.178Z,10.23
2022-10-17T11:43:56.671Z,10.25
2022-10-17T11:46:27.315Z,7.30
2022-10-17T11:54:36.048Z,8.85
2022-10-17T11:57:37.379Z,11.30
2022-10-17T12:00:26.474Z,7.45
2022-10-17T12:03:08.606Z,7.60
2022-10-17T12:05:46.556Z,6.95
2022-10-17T12:08:27.968Z,6.45
2022-10-17T12:11:05.298Z,8.57
2022-10-17T12:13:56.276Z,6.35
2022-10-17T12:16:46.808Z,6.63
2022-10-17T12:19:32.489Z,9.25
2022-10-17T12:22:21.315Z,6.13
2022-10-17T12:24:59.565Z,7.05
2022-10-17T12:27:43.697Z,5.78
2022-10-17T12:30:23.149Z,7.80
2022-10-17T12:33:08.445Z,5.43
2022-10-17T12:35:39.413Z,7.45
2022-10-17T12:38:29.223Z,6.07
2022-10-17T12:41:07.358Z,6.22
2022-10-17T12:43:55.488Z,6.10
2022-10-17T12:46:49.191Z,7.18
2022-10-17T12:49:43.389Z,8.43
2022-10-17T12:52:25.886Z,6.63
2022-10-17T12:55:10.864Z,9.48
2022-10-17T12:57:55.445Z,8.27
2022-10-17T13:00:33.173Z,10.25
2022-10-17T13:03:12.336Z,6.53
2022-10-17T13:05:46.766Z,9.15
2022-10-17T13:08:21.045Z,7.80
2022-10-17T13:10:53.274Z,8.73
2022-10-17T13:13:25.377Z,7.50
2022-10-17T13:15:56.021Z,7.68
2022-10-17T13:21:02.088Z,5.45
2022-10-17T13:23:36.313Z,9.65
2022-10-17T13:26:15.393Z,10.45
2022-10-17T13:28:44.135Z,6.70
2022-10-17T13:31:32.778Z,9.07
2022-10-17T13:34:04.002Z,7.85
2022-10-17T13:36:34.357Z,7.35
2022-10-17T13:39:12.322Z,8.38
2022-10-17T13:41:42.873Z,6.75
2022-10-17T13:44:15.455Z,8.93
2022-10-17T13:46:46.103Z,7.47
2022-10-17T13:51:52.984Z,8.52
2022-10-17T13:54:36.815Z,6.47
2022-10-17T13:57:07.173Z,7.45
2022-10-17T13:59:40.621Z,9.75
2022-10-17T14:02:16.888Z,10.25
2022-10-17T14:05:15.193Z,9.80
2022-10-17T14:08:10.147Z,7.90
2022-10-17T14:10:33.964Z,7.38
2022-10-17T14:13:04.282Z,8.77
2022-10-17T14:15:36.228Z,7.05
2022-10-17T14:18:09.180Z,7.25
2022-10-17T14:21:19.772Z,8.98
2022-10-17T14:23:37.545Z,9.60
2022-10-17T14:26:15.912Z,8.07
2022-10-17T14:28:48.297Z,7.03
2022-10-17T14:31:31.740Z,9.10
2022-10-17T14:34:03.053Z,5.78
2022-10-17T14:36:35.657Z,9.07
2022-10-17T14:39:08.548Z,9.20
2022-10-17T14:41:44.795Z,10.68
2022-10-17T14:44:27.143Z,6.43
2022-10-17T14:47:06.032Z,8.45
2022-10-17T14:49:41.970Z,7.30
2022-10-17T14:52:33.069Z,7.32
2022-10-17T14:55:20.567Z,7.07
2022-10-17T14:57:48.852Z,10.95
2022-10-17T15:00:18.736Z,9.52
2022-10-17T15:02:48.274Z,9.23
2022-10-17T15:05:19.462Z,8.45
2022-10-17T15:07:47.930Z,12.70
2022-10-17T15:10:32.886Z,7.75
2022-10-17T15:13:26.067Z,6.32
2022-10-17T15:15:52.398Z,8.90
2022-10-17T15:18:20.991Z,11.88
2022-10-17T15:20:59.512Z,10.95
2022-10-17T15:23:33.593Z,9.80
2022-10-17T15:26:02.267Z,9.55
2022-10-17T15:28:30.692Z,6.88
2022-10-17T15:30:59.147Z,7.95
2022-10-17T15:33:27.455Z,10.02
2022-10-17T15:40:54.472Z,8.27
2022-10-17T15:43:22.765Z,9.40
2022-10-17T15:45:51.207Z,10.40
2022-10-17T15:48:26.238Z,8.27
2022-10-17T15:50:55.989Z,10.10
2022-10-17T15:53:24.627Z,7.93
2022-10-17T15:55:52.881Z,8.73
2022-10-17T15:58:21.577Z,7.43
2022-10-17T16:00:50.001Z,10.13
2022-10-17T16:03:18.353Z,7.57
2022-10-17T16:05:47.059Z,7.43
2022-10-17T16:08:16.655Z,7.70
2022-10-17T16:10:44.908Z,6.50
2022-10-17T16:13:19.024Z,6.50
2022-10-17T16:15:47.520Z,6.50
2022-10-17T16:18:15.900Z,7.20
2022-10-17T16:20:44.332Z,6.85
2022-10-17T16:23:15.701Z,8.77
2022-10-17T16:25:44.040Z,6.55
2022-10-17T16:28:12.476Z,9.85
2022-10-17T16:30:46.363Z,10.43
2022-10-17T16:33:14.813Z,8.20
2022-10-17T16:35:43.276Z,7.50
2022-10-17T16:38:11.612Z,7.63
2022-10-17T16:40:41.443Z,8.45
2022-10-17T16:43:12.356Z,7.93
2022-10-17T16:45:41.376Z,6.45
2022-10-17T16:48:12.172Z,13.05
2022-10-17T16:50:41.622Z,12.13
2022-10-17T16:53:09.854Z,9.63
2022-10-17T16:55:38.198Z,7.22
2022-10-17T16:58:08.023Z,8.93
2022-10-17T17:00:36.334Z,8.60
2022-10-17T17:03:05.523Z,9.00
2022-10-17T17:05:33.962Z,9.35
2022-10-17T17:08:03.787Z,9.27
2022-10-17T17:10:32.181Z,8.70
2022-10-17T17:13:01.762Z,9.98
2022-10-17T17:15:31.789Z,10.10
2022-10-17T17:18:04.950Z,11.02
2022-10-17T17:20:34.945Z,8.50
2022-10-17T17:23:03.399Z,8.95
2022-10-17T17:25:31.773Z,7.35
2022-10-17T17:28:00.012Z,11.60
2022-10-17T17:30:29.652Z,9.85
2022-10-17T17:33:00.048Z,11.57
2022-10-17T17:35:28.731Z,8.90
2022-10-17T17:37:57.088Z,8.90
2022-10-17T17:40:25.537Z,11.05
2022-10-17T17:42:53.815Z,12.70
2022-10-17T17:45:22.192Z,9.38
2022-10-17T17:47:50.606Z,11.40
2022-10-17T17:50:20.593Z,9.27
2022-10-17T17:52:51.098Z,9.25
2022-10-17T17:55:19.424Z,8.48
2022-10-17T17:57:47.684Z,10.85
2022-10-17T18:00:16.407Z,10.77
2022-10-17T18:02:44.692Z,11.32
2022-10-17T18:05:13.078Z,11.05
2022-10-17T18:07:42.904Z,9.93
2022-10-17T18:12:44.196Z,11.13
2022-10-17T18:15:12.978Z,10.40
2022-10-17T18:17:44.501Z,12.68
2022-10-17T18:20:13.497Z,7.75
2022-10-17T18:22:43.070Z,8.98
2022-10-17T18:25:11.915Z,10.30
2022-10-17T18:27:40.206Z,7.90
2022-10-17T18:30:10.300Z,10.85
2022-10-17T18:32:38.613Z,11.57
2022-10-17T18:35:07.835Z,11.57
2022-10-17T18:37:36.178Z,10.07
2022-10-17T18:40:07.346Z,14.73
2022-10-17T18:42:35.786Z,12.05
2022-10-17T18:45:05.726Z,13.95
2022-10-17T18:47:34.288Z,12.68
2022-10-17T18:50:02.570Z,7.38
2022-10-17T18:52:30.862Z,8.52
2022-10-17T18:54:59.235Z,10.32
2022-10-17T18:57:29.161Z,9.73
2022-10-17T18:59:57.674Z,10.73
2022-10-17T19:02:26.043Z,10.02
2022-10-17T19:04:54.404Z,11.18
2022-10-17T19:07:22.671Z,13.15
2022-10-17T19:09:51.192Z,9.95
2022-10-17T19:12:19.437Z,9.38
2022-10-17T19:14:51.217Z,9.07
2022-10-17T19:17:19.656Z,10.73
2022-10-17T19:19:50.250Z,9.50
2022-10-17T19:24:46.681Z,12.85
2022-10-17T19:27:15.011Z,18.48
2022-10-17T19:29:44.073Z,11.02
2022-10-17T19:32:16.747Z,11.95
2022-10-17T19:34:47.582Z,15.23
2022-10-17T19:37:15.866Z,11.32
2022-10-17T19:39:44.200Z,9.60
2022-10-17T19:42:12.500Z,13.25
2022-10-17T19:44:40.832Z,8.20
2022-10-17T19:47:09.076Z,11.52
2022-10-17T19:49:39.166Z,12.65
2022-10-17T19:52:07.446Z,9.45
2022-10-17T19:54:35.681Z,11.68
2022-10-17T19:57:08.066Z,11.10
2022-10-17T19:59:38.813Z,14.13
2022-10-17T20:02:07.222Z,14.45
2022-10-17T20:04:35.547Z,14.88
2022-10-17T20:07:05.202Z,12.50
2022-10-17T20:09:33.658Z,11.93
2022-10-17T20:12:01.986Z,10.65
2022-10-17T20:14:30.429Z,14.65
2022-10-17T20:16:58.741Z,12.80
2022-10-17T20:19:27.117Z,12.77
2022-10-17T20:21:55.442Z,12.05
2022-10-17T20:24:25.240Z,12.55
2022-10-17T20:26:53.581Z,11.95
2022-10-17T20:29:24.007Z,14.23
2022-10-17T20:31:52.446Z,14.00
2022-10-17T20:34:20.967Z,17.20
2022-10-17T20:36:50.108Z,17.27
2022-10-17T20:39:21.616Z,14.57
2022-10-17T20:41:51.296Z,11.23
2022-10-17T20:44:19.795Z,11.43
2022-10-17T20:47:01.138Z,11.90
2022-10-17T20:49:31.123Z,11.60
2022-10-17T20:52:00.091Z,14.40
2022-10-17T20:54:29.331Z,11.10
2022-10-17T20:57:02.441Z,9.18
2022-10-17T20:59:34.327Z,12.20
2022-10-17T21:02:02.939Z,18.40
2022-10-17T21:04:47.493Z,12.38
2022-10-17T21:07:16.218Z,12.77
2022-10-17T21:09:46.248Z,11.48
2022-10-17T21:12:25.869Z,11.30
2022-10-17T21:14:59.993Z,11.90
2022-10-17T21:17:28.300Z,11.48
2022-10-17T21:19:56.976Z,10.27
2022-10-17T21:22:25.619Z,14.30
2022-10-17T21:24:53.953Z,13.80
2022-10-17T21:27:23.669Z,11.70
2022-10-17T21:29:52.053Z,13.03
2022-10-17T21:32:33.366Z,11.18
2022-10-17T21:35:09.287Z,18.58
2022-10-17T21:37:37.636Z,18.77
2022-10-17T21:40:07.276Z,9.70
2022-10-17T21:42:36.935Z,13.85
2022-10-17T21:45:15.369Z,11.73
2022-10-17T21:48:11.676Z,11.60
2022-10-17T21:50:36.887Z,10.63
2022-10-17T21:53:05.256Z,10.57
2022-10-17T21:55:33.700Z,13.02
2022-10-17T21:58:03.423Z,11.60
2022-10-17T22:00:31.850Z,13.10
2022-10-17T22:03:01.017Z,12.50
2022-10-17T22:05:30.270Z,11.43
2022-10-17T22:07:58.488Z,10.68
2022-10-17T22:10:26.973Z,22.15
2022-10-17T22:12:55.170Z,11.00
2022-10-17T22:15:24.824Z,11.40
2022-10-17T22:17:53.127Z,14.10
2022-10-17T22:20:21.509Z,15.20
2022-10-17T22:22:49.974Z,13.82
2022-10-17T22:25:18.464Z,15.15
2022-10-17T22:27:46.719Z,14.25
2022-10-17T22:30:14.995Z,15.90
2022-10-17T22:32:44.885Z,12.35
2022-10-17T22:35:13.696Z,15.05
2022-10-17T22:37:41.974Z,15.77
2022-10-17T22:40:11.306Z,17.02
2022-10-17T22:42:39.776Z,17.88
2022-10-17T22:45:09.014Z,16.20
2022-10-17T22:47:37.260Z,14.85
2022-10-17T22:50:07.534Z,18.92
2022-10-17T22:52:35.859Z,15.77
2022-10-17T22:55:04.560Z,13.50
2022-10-17T22:57:33.108Z,14.05
2022-10-17T23:00:01.359Z,12.90
2022-10-17T23:02:30.052Z,15.23
2022-10-17T23:04:58.767Z,18.88
2022-10-17T23:07:28.690Z,13.88
2022-10-17T23:09:57.060Z,15.25
2022-10-17T23:12:25.730Z,14.10
2022-10-17T23:14:54.024Z,15.50
2022-10-17T23:17:22.356Z,9.93
2022-10-17T23:19:52.947Z,6.93
2022-10-17T23:22:23.876Z,9.02
2022-10-17T23:24:53.635Z,11.45
2022-10-17T23:27:22.082Z,9.15
2022-10-17T23:29:50.418Z,8.80
2022-10-17T23:32:21.075Z,9.15
2022-10-17T23:37:17.564Z,8.75
2022-10-17T23:39:45.937Z,9.02
2022-10-17T23:42:15.556Z,8.23
2022-10-17T23:44:43.743Z,13.65
2022-10-17T23:47:12.013Z,9.30
2022-10-17T23:49:40.310Z,7.85
2022-10-17T23:52:08.668Z,6.53
2022-10-17T23:54:36.923Z,7.85
2022-10-17T23:57:05.464Z,12.50
2022-10-17T23:59:35.209Z,10.48
